Latest Weather Observations for Hay Point

IDQ60801

Issued at 11:03 pm EST Wednesday 25 May 2022 (issued every 10 minutes, with the page automatically refreshed every 10 minutes)

About weather observations | Map of weather stations | Latest weather observations for QLD | Other Formats
Station Details ID: 033317 Name: HAY POINT Lat: -21.29 Lon: 149.30 Height: 7.0 m
Data from the previous 72 hours. | See also: Recent months for locations in Queensland
Date/Time
EST
Temp
°C
App
Temp
°C
Dew
Point
°C
Rel
Hum
%
Delta-T
°C
Wind Press
QNH
hPa
Press
MSL
hPa
Rain since
9am
mm
Dir  Spd
km/h
Gust
km/h
Spd
kts
Gust
kts
25/11:00pm - - - - - SSE 28 32 15 17 - - -
25/10:30pm - - - - - S 19 22 10 12 - - -
25/10:00pm - - - - - S 13 19 7 10 - - -
25/09:30pm - - - - - SSW 13 17 7 9 - - -
25/09:00pm - - - - - SSW 13 15 7 8 - - -
25/08:30pm - - - - - SSE 22 26 12 14 - - -
25/08:00pm - - - - - SE 24 30 13 16 - - -
25/07:30pm - - - - - SE 24 28 13 15 - - -
25/07:00pm - - - - - SE 26 32 14 17 - - -
25/06:30pm - - - - - SSE 26 30 14 16 - - -
25/06:00pm - - - - - SE 24 30 13 16 - - -
25/05:30pm - - - - - SSE 28 30 15 16 - - -
25/05:00pm - - - - - SE 28 33 15 18 - - -
25/04:30pm - - - - - SSE 28 33 15 18 - - -
25/04:00pm - - - - - SSE 30 33 16 18 - - -
25/03:30pm - - - - - SSE 30 35 16 19 - - -
25/03:00pm - - - - - SSE 30 35 16 19 - - -
25/02:30pm - - - - - SSE 32 37 17 20 - - -
25/02:00pm - - - - - SSE 32 37 17 20 - - -
25/01:30pm - - - - - SSE 30 35 16 19 - - -
25/01:00pm - - - - - SSE 32 37 17 20 - - -
25/12:30pm - - - - - SSE 32 37 17 20 - - -
25/12:00pm - - - - - SSE 33 37 18 20 - - -
25/11:30am - - - - - SSE 33 39 18 21 - - -
25/11:00am - - - - - SSE 35 39 19 21 - - -
25/10:30am - - - - - SSE 32 37 17 20 - - -
25/10:00am - - - - - SSE 28 35 15 19 - - -
25/09:30am - - - - - S 26 33 14 18 - - -
25/09:00am - - - - - S 24 32 13 17 - - -
25/08:30am - - - - - S 26 33 14 18 - - -
25/08:00am - - - - - S 26 32 14 17 - - -
25/07:30am - - - - - S 30 37 16 20 - - -
25/07:00am - - - - - S 30 35 16 19 - - -
25/06:30am - - - - - S 30 37 16 20 - - -
25/06:00am - - - - - S 30 37 16 20 - - -
25/05:30am - - - - - S 30 35 16 19 - - -
25/05:00am - - - - - S 28 37 15 20 - - -
25/04:30am - - - - - S 30 39 16 21 - - -
25/04:00am - - - - - S 28 33 15 18 - - -
25/03:30am - - - - - S 24 32 13 17 - - -
25/03:00am - - - - - S 28 32 15 17 - - -
25/02:30am - - - - - SSW 22 28 12 15 - - -
25/02:00am - - - - - SSW 20 26 11 14 - - -
25/01:30am - - - - - S 17 24 9 13 - - -
25/01:00am - - - - - SSW 17 24 9 13 - - -
25/12:30am - - - - - S 24 32 13 17 - - -
25/12:00am - - - - - S 20 28 11 15 - - -
 
Date/Time
EST
Temp
°C
App
Temp
°C
Dew
Point
°C
Rel
Hum
%
Delta-T
°C
Wind Press
QNH
hPa
Press
MSL
hPa
Rain since
9am
mm
Dir  Spd
km/h
Gust
km/h
Spd
kts
Gust
kts
24/11:30pm - - - - - SSE 35 41 19 22 - - -
24/11:00pm - - - - - SSE 37 44 20 24 - - -
24/10:43pm - - - - - SSE 33 43 18 23 - - -
24/10:30pm - - - - - S 20 26 11 14 - - -
24/10:00pm - - - - - SSW 17 24 9 13 - - -
24/09:30pm - - - - - S 22 35 12 19 - - -
24/09:00pm - - - - - SSW 15 17 8 9 - - -
24/08:30pm - - - - - S 15 22 8 12 - - -
24/08:00pm - - - - - S 17 22 9 12 - - -
24/07:30pm - - - - - SSW 17 20 9 11 - - -
24/07:00pm - - - - - S 17 20 9 11 - - -
24/06:30pm - - - - - S 20 26 11 14 - - -
24/06:00pm - - - - - S 24 33 13 18 - - -
24/05:30pm - - - - - SSE 28 32 15 17 - - -
24/05:00pm - - - - - SSE 26 33 14 18 - - -
24/04:30pm - - - - - SSE 32 39 17 21 - - -
24/04:00pm - - - - - SSE 32 39 17 21 - - -
24/03:30pm - - - - - SSE 30 39 16 21 - - -
24/03:00pm - - - - - SSE 28 37 15 20 - - -
24/02:30pm - - - - - SSE 28 37 15 20 - - -
24/02:00pm - - - - - SSE 28 37 15 20 - - -
24/01:30pm - - - - - SSE 33 39 18 21 - - -
24/01:00pm - - - - - SSE 28 37 15 20 - - -
24/12:30pm - - - - - SSE 28 37 15 20 - - -
24/12:00pm - - - - - SSE 30 39 16 21 - - -
24/11:30am - - - - - SSE 30 35 16 19 - - -
24/11:00am - - - - - S 26 33 14 18 - - -
24/10:30am - - - - - S 30 37 16 20 - - -
24/10:00am - - - - - S 30 37 16 20 - - -
24/09:30am - - - - - S 32 43 17 23 - - -
24/09:00am - - - - - S 28 39 15 21 - - -
24/08:30am - - - - - S 28 35 15 19 - - -
24/08:00am - - - - - S 28 33 15 18 - - -
24/07:30am - - - - - S 26 32 14 17 - - -
24/07:00am - - - - - SSW 26 33 14 18 - - -
24/06:30am - - - - - S 28 33 15 18 - - -
24/06:00am - - - - - S 26 33 14 18 - - -
24/05:30am - - - - - SSW 24 30 13 16 - - -
24/05:00am - - - - - SSW 20 28 11 15 - - -
24/04:30am - - - - - S 22 32 12 17 - - -
24/04:00am - - - - - SSW 19 24 10 13 - - -
24/03:30am - - - - - S 26 35 14 19 - - -
24/03:00am - - - - - S 30 35 16 19 - - -
24/02:30am - - - - - S 30 35 16 19 - - -
24/02:00am - - - - - S 30 39 16 21 - - -
24/01:30am - - - - - SSW 24 32 13 17 - - -
24/01:00am - - - - - S 20 30 11 16 - - -
24/12:30am - - - - - S 20 28 11 15 - - -
24/12:00am - - - - - S 22 28 12 15 - - -
 
Date/Time
EST
Temp
°C
App
Temp
°C
Dew
Point
°C
Rel
Hum
%
Delta-T
°C
Wind Press
QNH
hPa
Press
MSL
hPa
Rain since
9am
mm
Dir  Spd
km/h
Gust
km/h
Spd
kts
Gust
kts
23/11:30pm - - - - - SSW 22 28 12 15 - - -
23/11:00pm - - - - - S 22 30 12 16 - - -
23/10:30pm - - - - - SSW 15 19 8 10 - - -
23/10:00pm - - - - - SSW 17 20 9 11 - - -
23/09:30pm - - - - - S 20 26 11 14 - - -
23/09:00pm - - - - - S 24 28 13 15 - - -
23/08:30pm - - - - - S 19 26 10 14 - - -
23/08:00pm - - - - - S 19 24 10 13 - - -
23/07:30pm - - - - - S 19 24 10 13 - - -
23/07:00pm - - - - - S 19 26 10 14 - - -
23/06:30pm - - - - - S 17 24 9 13 - - -
23/06:00pm - - - - - S 20 32 11 17 - - -
23/05:30pm - - - - - S 20 26 11 14 - - -
23/05:00pm - - - - - S 22 28 12 15 - - -
23/04:30pm - - - - - S 22 30 12 16 - - -
23/04:00pm - - - - - SSE 22 30 12 16 - - -
23/03:30pm - - - - - SSE 30 33 16 18 - - -
23/03:00pm - - - - - SSE 26 32 14 17 - - -
23/02:30pm - - - - - SSE 28 35 15 19 - - -
23/02:00pm - - - - - SSE 24 30 13 16 - - -
23/01:30pm - - - - - S 24 32 13 17 - - -
23/01:00pm - - - - - SSE 28 35 15 19 - - -
23/12:30pm - - - - - S 22 30 12 16 - - -
23/12:00pm - - - - - SSE 28 39 15 21 - - -
23/11:30am - - - - - SSE 26 35 14 19 - - -
23/11:00am - - - - - S 28 37 15 20 - - -
23/10:30am - - - - - S 26 37 14 20 - - -
23/10:00am - - - - - S 26 32 14 17 - - -
23/09:30am - - - - - S 30 37 16 20 - - -
23/09:00am - - - - - S 26 35 14 19 - - -
23/08:30am - - - - - S 26 30 14 16 - - -
23/08:00am - - - - - S 26 33 14 18 - - -
23/07:30am - - - - - S 28 35 15 19 - - -
23/07:00am - - - - - S 28 35 15 19 - - -
23/06:30am - - - - - S 32 37 17 20 - - -
23/06:00am - - - - - S 32 41 17 22 - - -
23/05:30am - - - - - S 33 41 18 22 - - -
23/05:00am - - - - - S 30 37 16 20 - - -
23/04:30am - - - - - S 28 35 15 19 - - -
23/04:00am - - - - - S 28 35 15 19 - - -
23/03:30am - - - - - S 26 32 14 17 - - -
23/03:00am - - - - - S 26 32 14 17 - - -
23/02:30am - - - - - S 24 32 13 17 - - -
23/02:00am - - - - - S 20 28 11 15 - - -
23/01:30am - - - - - S 20 28 11 15 - - -
23/01:00am - - - - - S 24 32 13 17 - - -
23/12:30am - - - - - S 24 30 13 16 - - -
23/12:00am - - - - - S 26 32 14 17 - - -
 
Date/Time
EST
Temp
°C
App
Temp
°C
Dew
Point
°C
Rel
Hum
%
Delta-T
°C
Wind Press
QNH
hPa
Press
MSL
hPa
Rain since
9am
mm
Dir  Spd
km/h
Gust
km/h
Spd
kts
Gust
kts
22/11:30pm - - - - - S 22 30 12 16 - - -

Other formats

Comma delimited format used in spreadsheet applications
http://www.bom.gov.au/fwo/IDQ60801/IDQ60801.99367.axf

JavaScript Object Notation format (JSON) in row-major order
http://www.bom.gov.au/fwo/IDQ60801/IDQ60801.99367.json

Data quality

Most of these data are generated automatically and are frequently updated. Quality checks on data are not normally performed. It is possible for incorrect values to appear. Refer to information at About Latest Weather Observations and please check the disclaimer before using these data.